Rockenbach Airport

Jump to: basic info | weather | runways | comments

Related pages: nearby airports | nearby navaids | notams | map

Basic information (top)

Codes: LL97
Location: lon 42.338902, lat -88.084801, elev 800 ft / 244 m msl
Status: small_airport

Weather (top)

Current conditions for Waukegan Regional Airport 11nm (20km) ENE (rec'd 2014/07/25 22:52Z):

KUGN 252252Z 20008KT 180V240 10SM SCT085 23/14 A2992 RMK AO2 SLP124 T02330144

Airport forecast for Kenosha Regional Airport 17nm (31km) NNE (rec'd 2014/07/25 18:57Z):

TAF KENW 251753Z 2518/2618 21010G17KT P6SM BKN250 
     FM251900 20010G17KT P6SM -RA BKN060 BKN250 
     FM252200 17009KT P6SM BKN200 
     FM260100 20007KT P6SM BKN040 
     FM261300 23006KT P6SM SCT030

Runways (top)

N/S: 2,000 x 100 ft (610 x 30 m) — grass — not lighted

Latest comments (top)

No comments yet for Rockenbach Airport

More... (top)

See also NOTAMs and nearby airports and navaids, or visit the Rockenbach Airport page at the main OurAirports website..